Dumfries, United Kingdom
Current Conditions -  °F | °C
As of 10:50 PM on Saturday 20 Dec 2014 (Local Time) from EGOM Reporting Station
Broken Clouds Broken Clouds  
Wind Chill: 32°   Ceiling: 200
Heat Index: 41°   Visibility: 6mi
Dew Point: 41°   Wind: 18mph
Humidity: 100%   Direction: 250°WSW
Pressure: 30.18"   Gusts: NA
Location:  55.07°N, 3.61°W
Report Text: EGOM 202250Z AUTO 25016KT 9999 BKN002/// 05/05 Q1022
Loading
Personal Weather Stations






























Interactive Weather Map New forecast layout! Learn more

10-Day Weather Forecast

Advertisements
Track Severe Weather on mobile